createdAt,value
2018-06-09T00:00:10.834Z,16.50
2018-06-09T00:02:38.505Z,16.40
2018-06-09T00:05:06.094Z,16.20
2018-06-09T00:07:33.728Z,16.10
2018-06-09T00:10:01.340Z,16.20
2018-06-09T00:12:28.951Z,16.20
2018-06-09T00:14:56.590Z,16.30
2018-06-09T00:19:51.805Z,16.40
2018-06-09T00:22:25.125Z,16.40
2018-06-09T00:24:52.742Z,16.30
2018-06-09T00:27:21.357Z,16.30
2018-06-09T00:29:48.980Z,16.40
2018-06-09T00:32:16.599Z,16.20
2018-06-09T00:34:44.256Z,16.10
2018-06-09T00:37:11.883Z,15.90
2018-06-09T00:39:39.521Z,15.90
2018-06-09T00:42:07.160Z,15.70
2018-06-09T00:44:34.764Z,15.50
2018-06-09T00:47:02.376Z,15.50
2018-06-09T00:49:29.976Z,15.40
2018-06-09T00:51:57.659Z,15.60
2018-06-09T00:54:25.276Z,15.70
2018-06-09T00:56:52.906Z,15.70
2018-06-09T00:59:20.532Z,15.80
2018-06-09T01:01:48.864Z,15.70
2018-06-09T01:04:16.546Z,15.70
2018-06-09T01:06:44.172Z,15.70
2018-06-09T01:09:11.841Z,15.80
2018-06-09T01:11:39.432Z,16.00
2018-06-09T01:14:07.032Z,16.10
2018-06-09T01:16:34.677Z,16.10
2018-06-09T01:19:02.282Z,16.10
2018-06-09T01:21:29.889Z,16.00
2018-06-09T01:23:57.488Z,16.10
2018-06-09T01:26:25.101Z,16.20
2018-06-09T01:28:52.703Z,16.20
2018-06-09T01:31:20.309Z,16.10
2018-06-09T01:33:47.916Z,16.10
2018-06-09T01:36:15.541Z,16.10
2018-06-09T01:38:43.156Z,16.10
2018-06-09T01:41:10.851Z,15.90
2018-06-09T01:43:38.485Z,16.00
2018-06-09T01:46:06.093Z,15.90
2018-06-09T01:48:33.732Z,16.00
2018-06-09T01:51:01.328Z,16.00
2018-06-09T01:53:29.440Z,15.90
2018-06-09T01:55:57.038Z,15.90
2018-06-09T01:58:24.680Z,15.80
2018-06-09T02:00:52.327Z,15.80
2018-06-09T02:03:19.952Z,15.80
2018-06-09T02:05:47.613Z,15.90
2018-06-09T02:08:15.239Z,16.00
2018-06-09T02:10:42.864Z,16.10
2018-06-09T02:15:38.000Z,16.00
2018-06-09T02:18:05.678Z,15.90
2018-06-09T02:20:33.320Z,15.70
2018-06-09T02:23:00.923Z,15.60
2018-06-09T02:25:28.536Z,15.60
2018-06-09T02:27:56.168Z,15.50
2018-06-09T02:30:23.792Z,15.50
2018-06-09T02:32:51.416Z,15.40
2018-06-09T02:35:19.032Z,15.40
2018-06-09T02:37:46.638Z,15.30
2018-06-09T02:40:14.881Z,15.30
2018-06-09T02:42:42.513Z,15.30
2018-06-09T02:45:10.136Z,15.30
2018-06-09T02:47:37.761Z,15.40
2018-06-09T02:50:05.436Z,15.40
2018-06-09T02:52:33.050Z,15.50
2018-06-09T02:55:00.644Z,15.60
2018-06-09T02:57:28.383Z,15.60
2018-06-09T02:59:55.988Z,15.60
2018-06-09T03:02:23.627Z,15.70
2018-06-09T03:04:51.232Z,15.70
2018-06-09T03:07:18.832Z,15.70
2018-06-09T03:09:46.468Z,15.70
2018-06-09T03:12:14.081Z,15.80
2018-06-09T03:14:42.704Z,15.80
2018-06-09T03:17:10.312Z,15.70
2018-06-09T03:19:37.929Z,15.80
2018-06-09T03:22:05.545Z,15.80
2018-06-09T03:24:33.136Z,15.70
2018-06-09T03:29:29.165Z,15.60
2018-06-09T03:31:56.780Z,15.70
2018-06-09T03:34:24.423Z,15.60
2018-06-09T03:36:52.704Z,15.60
2018-06-09T03:39:20.308Z,15.70
2018-06-09T03:41:47.952Z,15.60
2018-06-09T03:44:15.570Z,15.60
2018-06-09T03:46:43.184Z,15.60
2018-06-09T03:49:10.797Z,15.60
2018-06-09T03:51:38.405Z,15.60
2018-06-09T03:54:06.004Z,15.70
2018-06-09T03:56:34.660Z,15.70
2018-06-09T03:59:02.281Z,15.60
2018-06-09T04:01:29.889Z,15.70
2018-06-09T04:03:57.529Z,15.70
2018-06-09T04:06:25.752Z,15.70
2018-06-09T04:08:53.419Z,15.80
2018-06-09T04:11:20.981Z,15.80
2018-06-09T04:13:48.612Z,15.80
2018-06-09T04:16:16.244Z,15.90
2018-06-09T04:18:43.854Z,15.90
2018-06-09T04:21:11.461Z,16.00
2018-06-09T04:23:39.084Z,16.00
2018-06-09T04:26:06.697Z,16.00
2018-06-09T04:28:34.315Z,16.00
2018-06-09T04:31:01.925Z,15.90
2018-06-09T04:33:29.559Z,15.90
2018-06-09T04:35:57.181Z,16.00
2018-06-09T04:38:24.788Z,16.00
2018-06-09T04:40:52.390Z,16.00
2018-06-09T04:43:20.001Z,16.10
2018-06-09T04:45:48.240Z,16.10
2018-06-09T04:48:15.856Z,16.00
2018-06-09T04:50:43.446Z,15.90
2018-06-09T04:53:11.051Z,15.80
2018-06-09T04:55:38.668Z,15.80
2018-06-09T04:58:06.260Z,15.80
2018-06-09T05:00:33.941Z,15.90
2018-06-09T05:03:01.536Z,16.00
2018-06-09T05:05:29.232Z,16.30
2018-06-09T05:07:56.863Z,16.20
2018-06-09T05:10:24.710Z,16.50
2018-06-09T05:12:52.335Z,16.60
2018-06-09T05:15:19.948Z,16.50
2018-06-09T05:17:47.548Z,16.70
2018-06-09T05:20:15.149Z,17.00
2018-06-09T05:22:43.776Z,17.40
2018-06-09T05:25:11.382Z,17.70
2018-06-09T05:27:38.991Z,17.90
2018-06-09T05:30:06.609Z,18.10
2018-06-09T05:32:34.204Z,18.20
2018-06-09T05:35:01.866Z,18.20
2018-06-09T05:37:29.428Z,18.30
2018-06-09T05:39:57.073Z,18.40
2018-06-09T05:42:24.713Z,18.30
2018-06-09T05:44:52.311Z,18.20
2018-06-09T05:47:20.292Z,18.20
2018-06-09T05:49:47.915Z,18.20
2018-06-09T05:52:15.500Z,18.10
2018-06-09T05:54:43.108Z,17.90
2018-06-09T05:57:11.336Z,18.00
2018-06-09T05:59:38.932Z,18.10
2018-06-09T06:02:06.666Z,18.20
2018-06-09T06:04:34.269Z,18.30
2018-06-09T06:07:01.900Z,18.40
2018-06-09T06:09:29.510Z,18.60
2018-06-09T06:11:57.106Z,18.80
2018-06-09T06:14:24.692Z,19.00
2018-06-09T06:16:52.281Z,19.10
2018-06-09T06:19:19.927Z,19.20
2018-06-09T06:21:47.541Z,19.20
2018-06-09T06:24:15.137Z,19.30
2018-06-09T06:26:42.777Z,19.40
2018-06-09T06:31:37.921Z,19.60
2018-06-09T06:34:05.541Z,19.60
2018-06-09T06:36:33.181Z,19.60
2018-06-09T06:39:00.782Z,19.80
2018-06-09T06:41:28.404Z,19.90
2018-06-09T06:43:56.641Z,19.90
2018-06-09T06:46:24.281Z,20.00
2018-06-09T06:48:51.914Z,20.10
2018-06-09T06:51:19.553Z,20.20
2018-06-09T06:53:47.152Z,20.30
2018-06-09T06:56:14.785Z,20.50
2018-06-09T06:58:42.376Z,20.40
2018-06-09T07:01:11.032Z,20.50
2018-06-09T07:03:38.669Z,20.50
2018-06-09T07:06:06.304Z,20.70
2018-06-09T07:11:01.428Z,20.70
2018-06-09T07:13:29.076Z,20.90
2018-06-09T07:15:56.664Z,21.00
2018-06-09T07:18:24.269Z,21.20
2018-06-09T07:20:51.904Z,21.10
2018-06-09T07:23:20.164Z,21.30
2018-06-09T07:25:47.768Z,21.50
2018-06-09T07:28:15.633Z,21.50
2018-06-09T07:30:43.240Z,21.30
2018-06-09T07:35:39.055Z,21.10
2018-06-09T07:38:06.673Z,21.30
2018-06-09T07:40:34.332Z,21.70
2018-06-09T07:43:01.956Z,22.00
2018-06-09T07:45:30.600Z,22.10
2018-06-09T07:47:58.229Z,22.10
2018-06-09T07:50:26.429Z,22.40
2018-06-09T07:52:54.724Z,22.40
2018-06-09T07:55:22.328Z,22.60
2018-06-09T07:57:49.948Z,22.60
2018-06-09T08:00:17.556Z,22.90
2018-06-09T08:02:45.152Z,22.80
2018-06-09T08:05:12.765Z,22.80
2018-06-09T08:07:40.400Z,22.60
2018-06-09T08:10:08.035Z,22.70
2018-06-09T08:12:35.636Z,22.80
2018-06-09T08:15:03.269Z,22.80
2018-06-09T08:17:30.869Z,23.10
2018-06-09T08:19:58.509Z,23.20
2018-06-09T08:22:26.148Z,23.00
2018-06-09T08:24:53.736Z,22.90
2018-06-09T08:27:21.349Z,22.80
2018-06-09T08:29:49.001Z,23.00
2018-06-09T08:32:16.589Z,23.30
2018-06-09T08:34:44.212Z,23.30
2018-06-09T08:37:11.853Z,23.20
2018-06-09T08:39:39.456Z,23.40
2018-06-09T08:42:07.122Z,23.80
2018-06-09T08:44:34.711Z,24.10
2018-06-09T08:47:02.540Z,23.90
2018-06-09T08:49:30.148Z,23.40
2018-06-09T08:51:57.841Z,23.20
2018-06-09T08:54:25.450Z,23.20
2018-06-09T08:56:53.114Z,23.30
2018-06-09T08:59:20.712Z,23.40
2018-06-09T09:01:48.341Z,23.90
2018-06-09T09:04:15.939Z,24.00
2018-06-09T09:06:43.581Z,24.10
2018-06-09T09:09:11.185Z,24.10
2018-06-09T09:11:38.800Z,24.30
2018-06-09T09:14:06.413Z,24.00
2018-06-09T09:16:34.081Z,24.00
2018-06-09T09:19:01.689Z,23.80
2018-06-09T09:23:56.853Z,23.90
2018-06-09T09:26:24.520Z,23.70
2018-06-09T09:28:52.189Z,23.60
2018-06-09T09:31:21.100Z,23.40
2018-06-09T09:33:48.728Z,23.40
2018-06-09T09:36:16.323Z,23.30
2018-06-09T09:38:43.908Z,23.60
2018-06-09T09:41:11.554Z,23.70
2018-06-09T09:43:39.192Z,23.90
2018-06-09T09:46:06.807Z,24.30
2018-06-09T09:48:34.424Z,24.60
2018-06-09T09:51:02.125Z,24.50
2018-06-09T09:53:29.732Z,24.50
2018-06-09T09:55:57.368Z,24.50
2018-06-09T09:58:24.992Z,24.40
2018-06-09T10:00:52.612Z,24.30
2018-06-09T10:03:21.427Z,24.40
2018-06-09T10:05:49.065Z,24.70
2018-06-09T10:08:16.678Z,24.60
2018-06-09T10:10:44.280Z,24.60
2018-06-09T10:13:11.895Z,24.80
2018-06-09T10:15:39.493Z,24.80
2018-06-09T10:18:07.124Z,24.70
2018-06-09T10:20:34.807Z,24.50
2018-06-09T10:23:02.433Z,24.70
2018-06-09T10:25:30.045Z,24.80
2018-06-09T10:27:57.660Z,25.20
2018-06-09T10:32:53.035Z,25.70
2018-06-09T10:35:20.612Z,25.40
2018-06-09T10:37:48.220Z,25.20
2018-06-09T10:40:15.829Z,25.40
2018-06-09T10:42:43.436Z,25.50
2018-06-09T10:45:11.114Z,26.00
2018-06-09T10:47:38.719Z,26.00
2018-06-09T10:50:06.321Z,26.10
2018-06-09T10:52:33.918Z,26.60
2018-06-09T10:55:01.526Z,27.40
2018-06-09T10:57:29.203Z,27.20
2018-06-09T10:59:56.769Z,26.80
2018-06-09T11:02:25.419Z,27.10
2018-06-09T11:04:53.016Z,27.70
2018-06-09T11:07:20.638Z,27.90
2018-06-09T11:09:48.229Z,27.60
2018-06-09T11:12:15.932Z,27.30
2018-06-09T11:14:43.639Z,27.20
2018-06-09T11:17:11.252Z,27.40
2018-06-09T11:19:38.953Z,27.70
2018-06-09T11:22:06.582Z,28.00
2018-06-09T11:24:34.180Z,28.10
2018-06-09T11:27:01.798Z,27.90
2018-06-09T11:29:29.391Z,28.00
2018-06-09T11:31:57.030Z,27.90
2018-06-09T11:34:24.740Z,27.40
2018-06-09T11:36:53.025Z,27.30
2018-06-09T11:39:20.659Z,27.40
2018-06-09T11:41:48.265Z,27.60
2018-06-09T11:44:15.865Z,27.50
2018-06-09T11:46:43.464Z,27.70
2018-06-09T11:49:11.142Z,28.20
2018-06-09T11:51:39.185Z,28.30
2018-06-09T11:54:06.800Z,28.10
2018-06-09T11:56:34.397Z,28.00
2018-06-09T11:59:02.047Z,28.00
2018-06-09T12:01:29.645Z,27.90
2018-06-09T12:03:57.229Z,27.60
2018-06-09T12:06:24.872Z,27.20
2018-06-09T12:08:53.512Z,27.60
2018-06-09T12:11:21.177Z,27.70
2018-06-09T12:13:48.832Z,27.90
2018-06-09T12:16:16.533Z,27.80
2018-06-09T12:18:44.124Z,27.90
2018-06-09T12:21:11.711Z,27.90
2018-06-09T12:23:39.326Z,27.90
2018-06-09T12:26:07.917Z,27.90
2018-06-09T12:28:35.535Z,27.90
2018-06-09T12:31:03.913Z,28.00
2018-06-09T12:33:31.540Z,28.70
2018-06-09T12:35:59.141Z,29.90
2018-06-09T12:38:26.728Z,31.00
2018-06-09T12:40:55.323Z,31.40
2018-06-09T12:43:22.952Z,31.50
2018-06-09T12:45:50.631Z,32.20
2018-06-09T12:48:18.265Z,32.50
2018-06-09T12:50:45.895Z,32.60
2018-06-09T12:53:13.897Z,32.80
2018-06-09T12:55:42.513Z,32.50
2018-06-09T12:58:10.838Z,32.80
2018-06-09T13:00:38.427Z,33.10
2018-06-09T13:03:06.048Z,33.00
2018-06-09T13:05:33.652Z,32.80
2018-06-09T13:08:01.267Z,33.00
2018-06-09T13:10:28.840Z,33.70
2018-06-09T13:12:56.453Z,33.80
2018-06-09T13:15:24.077Z,34.40
2018-06-09T13:17:51.795Z,34.60
2018-06-09T13:20:20.435Z,34.80
2018-06-09T13:22:48.103Z,34.80
2018-06-09T13:25:15.717Z,34.20
2018-06-09T13:27:43.297Z,33.60
2018-06-09T13:30:10.888Z,32.80
2018-06-09T13:32:38.469Z,32.50
2018-06-09T13:35:06.101Z,32.10
2018-06-09T13:37:33.688Z,31.40
2018-06-09T13:40:02.328Z,31.20
2018-06-09T13:42:29.916Z,30.90
2018-06-09T13:44:57.582Z,30.10
2018-06-09T13:47:25.229Z,29.50
2018-06-09T13:49:52.828Z,29.30
2018-06-09T13:52:20.428Z,29.90
2018-06-09T13:54:48.682Z,30.30
2018-06-09T13:57:16.285Z,30.40
2018-06-09T13:59:43.889Z,30.40
2018-06-09T14:02:11.626Z,30.60
2018-06-09T14:04:39.218Z,30.70
2018-06-09T14:07:06.801Z,30.30
2018-06-09T14:09:34.504Z,30.30
2018-06-09T14:12:02.105Z,31.90
2018-06-09T14:14:29.693Z,33.80
2018-06-09T14:16:57.290Z,34.60
2018-06-09T14:21:52.417Z,33.30
2018-06-09T14:24:20.068Z,34.10
2018-06-09T14:26:47.729Z,35.00
2018-06-09T14:29:15.349Z,35.40
2018-06-09T14:31:42.972Z,35.50
2018-06-09T14:34:10.587Z,35.60
2018-06-09T14:36:38.205Z,36.30
2018-06-09T14:39:07.048Z,37.30
2018-06-09T14:41:34.704Z,38.00
2018-06-09T14:44:02.345Z,38.20
2018-06-09T14:46:29.981Z,39.60
2018-06-09T14:48:57.580Z,40.30
2018-06-09T14:51:25.208Z,40.80
2018-06-09T14:53:52.887Z,41.80
2018-06-09T15:02:02.847Z,42.90
2018-06-09T15:04:30.464Z,42.80
2018-06-09T15:06:58.100Z,42.60
2018-06-09T15:09:25.729Z,42.60
2018-06-09T15:14:20.845Z,42.80
2018-06-09T15:19:15.961Z,40.80
2018-06-09T15:21:43.556Z,40.30
2018-06-09T15:24:11.165Z,39.50
2018-06-09T15:26:39.560Z,38.40
2018-06-09T15:29:08.209Z,36.90
2018-06-09T15:31:35.788Z,36.10
2018-06-09T15:34:03.384Z,35.80
2018-06-09T15:36:30.979Z,35.60
2018-06-09T15:38:58.557Z,34.50
2018-06-09T15:41:26.164Z,33.60
2018-06-09T15:43:53.849Z,32.70
2018-06-09T15:46:21.481Z,32.10
2018-06-09T15:48:49.081Z,31.50
2018-06-09T15:51:16.673Z,31.00
2018-06-09T15:53:44.289Z,30.60
2018-06-09T15:56:11.888Z,30.10
2018-06-09T16:01:07.020Z,30.20
2018-06-09T16:06:02.206Z,29.70
2018-06-09T16:08:29.793Z,29.70
2018-06-09T16:10:57.373Z,29.50
2018-06-09T16:13:24.972Z,29.30
2018-06-09T16:15:52.616Z,28.90
2018-06-09T16:18:20.229Z,28.90
2018-06-09T16:20:47.815Z,29.00
2018-06-09T16:23:16.092Z,29.20
2018-06-09T16:25:43.688Z,29.60
2018-06-09T16:28:11.274Z,29.60
2018-06-09T16:30:38.913Z,29.30
2018-06-09T16:33:06.516Z,29.20
2018-06-09T16:35:35.447Z,29.10
2018-06-09T16:38:03.105Z,28.90
2018-06-09T16:40:30.729Z,28.60
2018-06-09T16:42:58.324Z,28.40
2018-06-09T16:45:26.813Z,28.10
2018-06-09T16:47:54.729Z,27.70
2018-06-09T16:50:22.346Z,27.30
2018-06-09T16:52:49.961Z,26.90
2018-06-09T16:55:17.556Z,26.50
2018-06-09T16:57:45.200Z,26.30
2018-06-09T17:00:13.943Z,26.30
2018-06-09T17:02:42.269Z,26.00
2018-06-09T17:05:10.328Z,25.70
2018-06-09T17:07:38.957Z,25.60
2018-06-09T17:10:09.391Z,25.30
2018-06-09T17:12:37.044Z,25.10
2018-06-09T17:15:05.820Z,24.90
2018-06-09T17:17:33.417Z,24.80
2018-06-09T17:20:01.013Z,25.10
2018-06-09T17:22:28.644Z,25.30
2018-06-09T17:24:56.241Z,25.60
2018-06-09T17:27:23.825Z,25.70
2018-06-09T17:29:51.411Z,25.50
2018-06-09T17:32:19.013Z,25.60
2018-06-09T17:34:46.637Z,25.50
2018-06-09T17:37:14.295Z,25.40
2018-06-09T17:39:41.921Z,25.30
2018-06-09T17:42:09.520Z,24.90
2018-06-09T17:44:37.110Z,24.80
2018-06-09T17:47:07.072Z,24.70
2018-06-09T17:49:35.646Z,24.50
2018-06-09T17:52:04.336Z,24.30
2018-06-09T17:54:31.924Z,24.20
2018-06-09T17:56:59.556Z,24.20
2018-06-09T17:59:27.443Z,24.00
2018-06-09T18:04:23.389Z,23.80
2018-06-09T18:06:51.161Z,23.80
2018-06-09T18:09:18.809Z,23.60
2018-06-09T18:11:46.405Z,23.40
2018-06-09T18:14:13.991Z,23.30
2018-06-09T18:16:41.600Z,22.90
2018-06-09T18:19:09.189Z,22.60
2018-06-09T18:21:36.779Z,22.50
2018-06-09T18:24:04.400Z,22.40
2018-06-09T18:26:32.061Z,22.30
2018-06-09T18:28:59.672Z,22.20
2018-06-09T18:31:27.296Z,21.70
2018-06-09T18:33:54.916Z,21.90
2018-06-09T18:36:22.541Z,21.90
2018-06-09T18:38:50.152Z,21.90
2018-06-09T18:41:17.760Z,21.90
2018-06-09T18:43:45.423Z,21.90
2018-06-09T18:46:14.002Z,22.00
2018-06-09T18:48:41.612Z,22.00
2018-06-09T18:51:09.207Z,21.90
2018-06-09T18:56:04.421Z,21.60
2018-06-09T18:58:32.061Z,21.50
2018-06-09T19:00:59.706Z,21.40
2018-06-09T19:03:28.364Z,21.30
2018-06-09T19:05:56.185Z,21.10
2018-06-09T19:08:23.808Z,21.10
2018-06-09T19:10:51.424Z,21.00
2018-06-09T19:13:20.072Z,21.00
2018-06-09T19:15:47.713Z,21.10
2018-06-09T19:18:15.312Z,21.10
2018-06-09T19:20:43.912Z,21.30
2018-06-09T19:23:11.508Z,21.30
2018-06-09T19:25:39.219Z,21.40
2018-06-09T19:28:07.444Z,21.20
2018-06-09T19:30:35.648Z,21.00
2018-06-09T19:33:03.474Z,20.90
2018-06-09T19:35:31.293Z,20.90
2018-06-09T19:37:59.198Z,20.90
2018-06-09T19:40:27.682Z,21.00
2018-06-09T19:42:55.410Z,21.10
2018-06-09T19:45:23.037Z,21.20
2018-06-09T19:47:50.633Z,21.30
2018-06-09T19:50:18.244Z,21.40
2018-06-09T19:55:13.371Z,21.00
2018-06-09T19:57:41.996Z,20.90
2018-06-09T20:00:09.694Z,20.90
2018-06-09T20:02:37.280Z,21.00
2018-06-09T20:05:04.957Z,21.10
2018-06-09T20:07:32.580Z,21.00
2018-06-09T20:10:00.193Z,21.10
2018-06-09T20:12:27.812Z,21.10
2018-06-09T20:14:55.441Z,21.20
2018-06-09T20:17:23.092Z,21.30
2018-06-09T20:19:51.288Z,21.20
2018-06-09T20:22:18.931Z,21.00
2018-06-09T20:24:46.713Z,20.90
2018-06-09T20:27:14.308Z,20.90
2018-06-09T20:29:41.951Z,19.50
2018-06-09T20:32:09.570Z,20.90
2018-06-09T20:34:37.236Z,20.80
2018-06-09T20:37:04.913Z,20.90
2018-06-09T20:39:32.624Z,20.90
2018-06-09T20:42:00.221Z,20.90
2018-06-09T20:44:27.852Z,20.90
2018-06-09T20:46:55.504Z,20.90
2018-06-09T20:49:27.229Z,20.80
2018-06-09T20:57:04.226Z,20.30
2018-06-09T20:59:34.664Z,20.10
2018-06-09T21:02:02.717Z,20.20
2018-06-09T21:07:00.749Z,20.00
2018-06-09T21:09:28.351Z,20.00
2018-06-09T21:11:55.977Z,20.00
2018-06-09T21:14:31.234Z,19.90
2018-06-09T21:16:58.848Z,19.90
2018-06-09T21:19:27.444Z,19.90
2018-06-09T21:21:55.062Z,19.90
2018-06-09T21:24:22.717Z,20.00
2018-06-09T21:26:55.913Z,20.00
2018-06-09T21:29:31.408Z,19.90
2018-06-09T21:34:55.753Z,19.90
2018-06-09T21:37:29.937Z,19.80
2018-06-09T21:40:04.249Z,19.60
2018-06-09T21:42:39.489Z,19.50
2018-06-09T21:45:08.392Z,19.70
2018-06-09T21:47:36.203Z,19.80
2018-06-09T21:50:04.056Z,19.90
2018-06-09T21:52:32.685Z,19.90
2018-06-09T21:55:00.297Z,19.90
2018-06-09T21:57:27.905Z,20.00
2018-06-09T21:59:55.537Z,20.10
2018-06-09T22:02:23.204Z,20.20
2018-06-09T22:04:50.877Z,20.30
2018-06-09T22:07:18.438Z,20.20
2018-06-09T22:09:46.017Z,20.10
2018-06-09T22:12:13.624Z,20.20
2018-06-09T22:14:41.224Z,20.30
2018-06-09T22:17:08.827Z,20.30
2018-06-09T22:19:37.064Z,20.20
2018-06-09T22:22:04.664Z,20.00
2018-06-09T22:24:33.288Z,20.10
2018-06-09T22:27:00.919Z,20.10
2018-06-09T22:29:28.518Z,20.30
2018-06-09T22:31:56.101Z,20.30
2018-06-09T22:34:24.836Z,20.40
2018-06-09T22:36:52.451Z,20.40
2018-06-09T22:39:20.045Z,20.40
2018-06-09T22:44:15.196Z,20.40
2018-06-09T22:46:42.809Z,20.40
2018-06-09T22:49:10.441Z,20.30
2018-06-09T22:51:38.101Z,20.30
2018-06-09T22:54:05.809Z,20.30
2018-06-09T22:56:33.425Z,20.20
2018-06-09T22:59:01.017Z,20.20
2018-06-09T23:01:28.613Z,20.30
2018-06-09T23:03:56.199Z,20.30
2018-06-09T23:06:23.841Z,20.30
2018-06-09T23:08:51.444Z,20.20
2018-06-09T23:11:19.036Z,20.10
2018-06-09T23:13:46.662Z,20.10
2018-06-09T23:16:14.253Z,20.20
2018-06-09T23:18:41.840Z,20.10
2018-06-09T23:21:10.129Z,20.10
2018-06-09T23:23:37.778Z,20.10
2018-06-09T23:26:05.454Z,20.10
2018-06-09T23:28:33.057Z,20.00
2018-06-09T23:31:00.653Z,19.80
2018-06-09T23:33:28.257Z,19.90
2018-06-09T23:35:55.849Z,19.90
2018-06-09T23:38:23.900Z,19.90
2018-06-09T23:40:51.484Z,20.00
2018-06-09T23:43:19.560Z,19.90
2018-06-09T23:45:47.189Z,20.00
2018-06-09T23:48:14.892Z,20.00
2018-06-09T23:50:42.541Z,20.00
2018-06-09T23:53:10.132Z,20.00
2018-06-09T23:55:37.721Z,19.80
2018-06-09T23:58:05.348Z,19.50
